sensor_id;sensor_type;location;lat;lon;timestamp;P1;durP1;ratioP1;P2;durP2;ratioP2
60919;SDS011;59039;52.108;19.942;2023-04-01T00:01:03;55.60;;;30.70;;
60919;SDS011;59039;52.108;19.942;2023-04-01T00:03:32;56.50;;;30.40;;
60919;SDS011;59039;52.108;19.942;2023-04-01T00:06:01;59.40;;;28.90;;
60919;SDS011;59039;52.108;19.942;2023-04-01T00:08:27;57.80;;;30.60;;
60919;SDS011;59039;52.108;19.942;2023-04-01T00:11:03;59.10;;;30.90;;
60919;SDS011;59039;52.108;19.942;2023-04-01T00:13:29;55.20;;;30.10;;
60919;SDS011;59039;52.108;19.942;2023-04-01T00:15:57;55.10;;;30.40;;
60919;SDS011;59039;52.108;19.942;2023-04-01T00:18:22;51.30;;;29.10;;
60919;SDS011;59039;52.108;19.942;2023-04-01T00:20:48;56.30;;;30.50;;
60919;SDS011;59039;52.108;19.942;2023-04-01T00:23:15;57.70;;;29.80;;
60919;SDS011;59039;52.108;19.942;2023-04-01T00:25:41;53.40;;;28.90;;
60919;SDS011;59039;52.108;19.942;2023-04-01T00:28:20;50.20;;;28.00;;
60919;SDS011;59039;52.108;19.942;2023-04-01T00:30:46;47.50;;;26.30;;
60919;SDS011;59039;52.108;19.942;2023-04-01T00:33:11;50.40;;;27.00;;
60919;SDS011;59039;52.108;19.942;2023-04-01T00:35:39;46.80;;;27.10;;
60919;SDS011;59039;52.108;19.942;2023-04-01T00:38:05;45.00;;;26.60;;
60919;SDS011;59039;52.108;19.942;2023-04-01T00:40:42;45.10;;;26.00;;
60919;SDS011;59039;52.108;19.942;2023-04-01T00:43:12;51.50;;;26.40;;
60919;SDS011;59039;52.108;19.942;2023-04-01T00:45:41;60.80;;;29.20;;
60919;SDS011;59039;52.108;19.942;2023-04-01T00:48:10;53.00;;;26.30;;
60919;SDS011;59039;52.108;19.942;2023-04-01T00:50:39;53.80;;;26.80;;
60919;SDS011;59039;52.108;19.942;2023-04-01T00:53:07;45.50;;;24.20;;
60919;SDS011;59039;52.108;19.942;2023-04-01T00:55:49;48.00;;;23.20;;
60919;SDS011;59039;52.108;19.942;2023-04-01T00:58:37;47.00;;;22.80;;
60919;SDS011;59039;52.108;19.942;2023-04-01T01:01:06;47.00;;;23.00;;
60919;SDS011;59039;52.108;19.942;2023-04-01T01:03:34;42.50;;;22.80;;
60919;SDS011;59039;52.108;19.942;2023-04-01T01:06:07;44.30;;;22.20;;
60919;SDS011;59039;52.108;19.942;2023-04-01T01:16:52;38.40;;;20.10;;
60919;SDS011;59039;52.108;19.942;2023-04-01T01:22:07;37.20;;;19.30;;
60919;SDS011;59039;52.108;19.942;2023-04-01T01:24:52;38.50;;;20.00;;
60919;SDS011;59039;52.108;19.942;2023-04-01T01:27:39;36.70;;;20.40;;
60919;SDS011;59039;52.108;19.942;2023-04-01T01:30:13;39.60;;;20.40;;
60919;SDS011;59039;52.108;19.942;2023-04-01T01:35:49;38.80;;;21.30;;
60919;SDS011;59039;52.108;19.942;2023-04-01T01:38:22;34.80;;;20.00;;
60919;SDS011;59039;52.108;19.942;2023-04-01T01:40:55;36.70;;;21.10;;
60919;SDS011;59039;52.108;19.942;2023-04-01T01:43:27;38.90;;;21.30;;
60919;SDS011;59039;52.108;19.942;2023-04-01T01:46:00;34.80;;;20.70;;
60919;SDS011;59039;52.108;19.942;2023-04-01T01:48:29;35.10;;;20.50;;
60919;SDS011;59039;52.108;19.942;2023-04-01T01:50:59;42.30;;;21.70;;
60919;SDS011;59039;52.108;19.942;2023-04-01T01:53:28;38.50;;;21.50;;
60919;SDS011;59039;52.108;19.942;2023-04-01T01:55:55;39.60;;;21.90;;
60919;SDS011;59039;52.108;19.942;2023-04-01T02:01:01;34.70;;;20.70;;
60919;SDS011;59039;52.108;19.942;2023-04-01T02:03:30;38.40;;;22.10;;
60919;SDS011;59039;52.108;19.942;2023-04-01T02:05:59;37.90;;;21.10;;
60919;SDS011;59039;52.108;19.942;2023-04-01T02:08:36;41.00;;;23.40;;
60919;SDS011;59039;52.108;19.942;2023-04-01T02:11:10;40.80;;;23.60;;
60919;SDS011;59039;52.108;19.942;2023-04-01T02:16:44;42.20;;;21.10;;
60919;SDS011;59039;52.108;19.942;2023-04-01T02:19:16;33.20;;;19.40;;
60919;SDS011;59039;52.108;19.942;2023-04-01T02:21:42;32.10;;;16.70;;
60919;SDS011;59039;52.108;19.942;2023-04-01T02:24:10;30.00;;;17.30;;
60919;SDS011;59039;52.108;19.942;2023-04-01T02:26:39;27.90;;;17.40;;
60919;SDS011;59039;52.108;19.942;2023-04-01T02:29:05;29.00;;;17.10;;
60919;SDS011;59039;52.108;19.942;2023-04-01T02:31:44;25.50;;;15.30;;
60919;SDS011;59039;52.108;19.942;2023-04-01T02:36:49;23.10;;;15.00;;
60919;SDS011;59039;52.108;19.942;2023-04-01T02:39:15;28.50;;;16.40;;
60919;SDS011;59039;52.108;19.942;2023-04-01T02:41:52;26.70;;;14.70;;
60919;SDS011;59039;52.108;19.942;2023-04-01T02:44:29;30.50;;;17.00;;
60919;SDS011;59039;52.108;19.942;2023-04-01T02:46:54;28.10;;;16.80;;
60919;SDS011;59039;52.108;19.942;2023-04-01T02:49:20;31.40;;;17.00;;
60919;SDS011;59039;52.108;19.942;2023-04-01T02:51:47;29.20;;;16.60;;
60919;SDS011;59039;52.108;19.942;2023-04-01T02:54:23;26.60;;;16.30;;
60919;SDS011;59039;52.108;19.942;2023-04-01T02:56:48;29.30;;;15.80;;
60919;SDS011;59039;52.108;19.942;2023-04-01T02:59:22;30.20;;;16.60;;
60919;SDS011;59039;52.108;19.942;2023-04-01T03:01:58;30.50;;;17.60;;
60919;SDS011;59039;52.108;19.942;2023-04-01T03:04:24;27.40;;;15.80;;
60919;SDS011;59039;52.108;19.942;2023-04-01T03:06:52;30.10;;;15.90;;
60919;SDS011;59039;52.108;19.942;2023-04-01T03:09:17;24.10;;;13.90;;
60919;SDS011;59039;52.108;19.942;2023-04-01T03:11:45;29.30;;;14.50;;
60919;SDS011;59039;52.108;19.942;2023-04-01T03:14:21;24.00;;;14.00;;
60919;SDS011;59039;52.108;19.942;2023-04-01T03:19:22;22.10;;;11.90;;
60919;SDS011;59039;52.108;19.942;2023-04-01T03:21:48;19.60;;;11.10;;
60919;SDS011;59039;52.108;19.942;2023-04-01T03:24:13;18.40;;;10.90;;
60919;SDS011;59039;52.108;19.942;2023-04-01T03:26:38;22.20;;;10.80;;
60919;SDS011;59039;52.108;19.942;2023-04-01T03:29:26;19.80;;;10.80;;
60919;SDS011;59039;52.108;19.942;2023-04-01T03:31:54;17.50;;;10.90;;
60919;SDS011;59039;52.108;19.942;2023-04-01T03:34:23;20.30;;;11.20;;
60919;SDS011;59039;52.108;19.942;2023-04-01T03:36:59;16.10;;;10.00;;
60919;SDS011;59039;52.108;19.942;2023-04-01T03:39:25;18.00;;;10.40;;
60919;SDS011;59039;52.108;19.942;2023-04-01T03:41:50;17.60;;;10.60;;
60919;SDS011;59039;52.108;19.942;2023-04-01T03:44:15;17.70;;;10.60;;
60919;SDS011;59039;52.108;19.942;2023-04-01T03:46:41;18.00;;;10.90;;
60919;SDS011;59039;52.108;19.942;2023-04-01T03:49:08;17.20;;;11.00;;
60919;SDS011;59039;52.108;19.942;2023-04-01T03:51:34;18.70;;;11.70;;
60919;SDS011;59039;52.108;19.942;2023-04-01T03:54:00;17.50;;;11.00;;
60919;SDS011;59039;52.108;19.942;2023-04-01T03:56:28;23.20;;;12.10;;
60919;SDS011;59039;52.108;19.942;2023-04-01T03:59:00;19.00;;;11.80;;
60919;SDS011;59039;52.108;19.942;2023-04-01T04:01:27;23.10;;;13.40;;
60919;SDS011;59039;52.108;19.942;2023-04-01T04:03:55;23.10;;;13.90;;
60919;SDS011;59039;52.108;19.942;2023-04-01T04:06:21;23.10;;;14.20;;
60919;SDS011;59039;52.108;19.942;2023-04-01T04:08:50;22.80;;;13.90;;
60919;SDS011;59039;52.108;19.942;2023-04-01T04:11:15;24.60;;;14.90;;
60919;SDS011;59039;52.108;19.942;2023-04-01T04:13:44;22.40;;;13.90;;
60919;SDS011;59039;52.108;19.942;2023-04-01T04:16:10;25.30;;;13.90;;
60919;SDS011;59039;52.108;19.942;2023-04-01T04:18:38;28.60;;;14.10;;
60919;SDS011;59039;52.108;19.942;2023-04-01T04:21:15;23.10;;;13.40;;
60919;SDS011;59039;52.108;19.942;2023-04-01T04:23:48;28.80;;;15.60;;
60919;SDS011;59039;52.108;19.942;2023-04-01T04:26:14;28.70;;;16.00;;
60919;SDS011;59039;52.108;19.942;2023-04-01T04:28:42;27.10;;;15.90;;
60919;SDS011;59039;52.108;19.942;2023-04-01T04:31:08;33.40;;;17.30;;
60919;SDS011;59039;52.108;19.942;2023-04-01T04:33:33;32.70;;;17.90;;
60919;SDS011;59039;52.108;19.942;2023-04-01T04:35:59;37.30;;;19.40;;
60919;SDS011;59039;52.108;19.942;2023-04-01T04:38:25;37.50;;;19.40;;
60919;SDS011;59039;52.108;19.942;2023-04-01T04:40:51;39.50;;;20.80;;
60919;SDS011;59039;52.108;19.942;2023-04-01T04:43:16;42.80;;;24.10;;
60919;SDS011;59039;52.108;19.942;2023-04-01T04:45:43;41.70;;;23.60;;
60919;SDS011;59039;52.108;19.942;2023-04-01T04:48:09;48.60;;;24.90;;
60919;SDS011;59039;52.108;19.942;2023-04-01T04:50:35;46.40;;;24.20;;
60919;SDS011;59039;52.108;19.942;2023-04-01T04:53:08;46.10;;;24.60;;
60919;SDS011;59039;52.108;19.942;2023-04-01T04:55:34;50.20;;;24.60;;
60919;SDS011;59039;52.108;19.942;2023-04-01T04:58:00;44.80;;;24.60;;
60919;SDS011;59039;52.108;19.942;2023-04-01T05:00:25;53.10;;;27.00;;
60919;SDS011;59039;52.108;19.942;2023-04-01T05:02:51;52.40;;;27.80;;
60919;SDS011;59039;52.108;19.942;2023-04-01T05:05:17;51.20;;;28.10;;
60919;SDS011;59039;52.108;19.942;2023-04-01T05:07:45;53.70;;;28.30;;
60919;SDS011;59039;52.108;19.942;2023-04-01T05:10:12;58.30;;;28.80;;
60919;SDS011;59039;52.108;19.942;2023-04-01T05:12:37;51.40;;;27.30;;
60919;SDS011;59039;52.108;19.942;2023-04-01T05:15:04;49.00;;;25.70;;
60919;SDS011;59039;52.108;19.942;2023-04-01T05:17:35;60.80;;;26.30;;
60919;SDS011;59039;52.108;19.942;2023-04-01T05:20:01;51.90;;;26.30;;
60919;SDS011;59039;52.108;19.942;2023-04-01T05:22:26;52.40;;;27.90;;
60919;SDS011;59039;52.108;19.942;2023-04-01T05:24:52;55.90;;;27.20;;
60919;SDS011;59039;52.108;19.942;2023-04-01T05:27:19;55.10;;;26.60;;
60919;SDS011;59039;52.108;19.942;2023-04-01T05:29:45;53.20;;;26.90;;
60919;SDS011;59039;52.108;19.942;2023-04-01T05:32:13;52.70;;;28.20;;
60919;SDS011;59039;52.108;19.942;2023-04-01T05:34:42;52.10;;;26.20;;
60919;SDS011;59039;52.108;19.942;2023-04-01T05:37:08;47.00;;;25.10;;
60919;SDS011;59039;52.108;19.942;2023-04-01T05:40:06;49.90;;;26.30;;
60919;SDS011;59039;52.108;19.942;2023-04-01T05:42:25;41.40;;;22.60;;
60919;SDS011;59039;52.108;19.942;2023-04-01T05:44:53;47.20;;;24.50;;
60919;SDS011;59039;52.108;19.942;2023-04-01T05:47:18;44.90;;;23.50;;
60919;SDS011;59039;52.108;19.942;2023-04-01T05:49:43;46.20;;;23.60;;
60919;SDS011;59039;52.108;19.942;2023-04-01T05:52:09;40.00;;;23.60;;
60919;SDS011;59039;52.108;19.942;2023-04-01T05:54:34;48.70;;;26.40;;
60919;SDS011;59039;52.108;19.942;2023-04-01T05:57:01;48.70;;;26.50;;
60919;SDS011;59039;52.108;19.942;2023-04-01T05:59:26;48.10;;;24.70;;
60919;SDS011;59039;52.108;19.942;2023-04-01T06:01:54;49.10;;;25.10;;
60919;SDS011;59039;52.108;19.942;2023-04-01T06:04:32;44.00;;;24.20;;
60919;SDS011;59039;52.108;19.942;2023-04-01T06:07:05;42.80;;;23.90;;
60919;SDS011;59039;52.108;19.942;2023-04-01T06:09:41;44.30;;;24.30;;
60919;SDS011;59039;52.108;19.942;2023-04-01T06:15:10;49.50;;;24.50;;
60919;SDS011;59039;52.108;19.942;2023-04-01T06:17:47;46.70;;;23.40;;
60919;SDS011;59039;52.108;19.942;2023-04-01T06:20:36;47.30;;;23.70;;
60919;SDS011;59039;52.108;19.942;2023-04-01T06:23:25;45.80;;;24.40;;
60919;SDS011;59039;52.108;19.942;2023-04-01T06:31:40;46.60;;;23.40;;
60919;SDS011;59039;52.108;19.942;2023-04-01T06:42:45;43.10;;;23.60;;
60919;SDS011;59039;52.108;19.942;2023-04-01T06:48:10;38.10;;;21.10;;
60919;SDS011;59039;52.108;19.942;2023-04-01T06:53:44;45.50;;;23.80;;
60919;SDS011;59039;52.108;19.942;2023-04-01T06:56:38;39.60;;;21.20;;
60919;SDS011;59039;52.108;19.942;2023-04-01T06:59:10;43.80;;;24.10;;
60919;SDS011;59039;52.108;19.942;2023-04-01T07:01:59;45.40;;;23.30;;
60919;SDS011;59039;52.108;19.942;2023-04-01T07:04:44;43.80;;;25.20;;
60919;SDS011;59039;52.108;19.942;2023-04-01T07:10:05;50.90;;;26.90;;
60919;SDS011;59039;52.108;19.942;2023-04-01T07:12:49;52.60;;;26.90;;
60919;SDS011;59039;52.108;19.942;2023-04-01T07:15:24;53.50;;;27.30;;
60919;SDS011;59039;52.108;19.942;2023-04-01T07:17:55;60.70;;;29.20;;
60919;SDS011;59039;52.108;19.942;2023-04-01T07:20:31;53.70;;;26.70;;
60919;SDS011;59039;52.108;19.942;2023-04-01T07:23:01;48.10;;;24.80;;
60919;SDS011;59039;52.108;19.942;2023-04-01T07:25:30;38.30;;;20.80;;
60919;SDS011;59039;52.108;19.942;2023-04-01T07:28:11;48.90;;;26.10;;
60919;SDS011;59039;52.108;19.942;2023-04-01T07:33:43;57.80;;;29.70;;
60919;SDS011;59039;52.108;19.942;2023-04-01T07:39:26;47.40;;;25.50;;
60919;SDS011;59039;52.108;19.942;2023-04-01T07:42:06;55.40;;;27.80;;
60919;SDS011;59039;52.108;19.942;2023-04-01T07:50:05;54.20;;;26.50;;
60919;SDS011;59039;52.108;19.942;2023-04-01T07:52:44;65.40;;;28.70;;
60919;SDS011;59039;52.108;19.942;2023-04-01T08:00:58;53.90;;;26.30;;
60919;SDS011;59039;52.108;19.942;2023-04-01T08:03:37;53.60;;;24.70;;
60919;SDS011;59039;52.108;19.942;2023-04-01T08:14:21;75.00;;;34.10;;
60919;SDS011;59039;52.108;19.942;2023-04-01T08:17:08;72.60;;;31.60;;
60919;SDS011;59039;52.108;19.942;2023-04-01T08:20:07;58.00;;;28.20;;
60919;SDS011;59039;52.108;19.942;2023-04-01T08:22:38;58.60;;;27.10;;
60919;SDS011;59039;52.108;19.942;2023-04-01T08:25:13;48.40;;;23.60;;
60919;SDS011;59039;52.108;19.942;2023-04-01T08:27:53;63.80;;;26.70;;
60919;SDS011;59039;52.108;19.942;2023-04-01T08:30:26;53.50;;;25.40;;
60919;SDS011;59039;52.108;19.942;2023-04-01T08:33:18;62.30;;;30.30;;
60919;SDS011;59039;52.108;19.942;2023-04-01T08:35:54;69.40;;;32.50;;
60919;SDS011;59039;52.108;19.942;2023-04-01T08:52:07;47.90;;;22.30;;
60919;SDS011;59039;52.108;19.942;2023-04-01T09:11:17;56.10;;;27.30;;
60919;SDS011;59039;52.108;19.942;2023-04-01T09:16:27;45.60;;;22.70;;
60919;SDS011;59039;52.108;19.942;2023-04-01T09:19:34;46.70;;;23.20;;
60919;SDS011;59039;52.108;19.942;2023-04-01T09:22:10;39.90;;;20.50;;
60919;SDS011;59039;52.108;19.942;2023-04-01T09:27:57;35.00;;;18.90;;
60919;SDS011;59039;52.108;19.942;2023-04-01T09:44:34;28.60;;;14.60;;
60919;SDS011;59039;52.108;19.942;2023-04-01T09:58:28;22.40;;;12.00;;
60919;SDS011;59039;52.108;19.942;2023-04-01T10:17:57;12.50;;;6.80;;
60919;SDS011;59039;52.108;19.942;2023-04-01T10:20:54;12.20;;;6.60;;
60919;SDS011;59039;52.108;19.942;2023-04-01T10:26:36;16.50;;;8.60;;
60919;SDS011;59039;52.108;19.942;2023-04-01T10:35:28;13.30;;;8.50;;
60919;SDS011;59039;52.108;19.942;2023-04-01T10:57:47;8.70;;;5.60;;
60919;SDS011;59039;52.108;19.942;2023-04-01T11:00:50;3.50;;;2.30;;
60919;SDS011;59039;52.108;19.942;2023-04-01T11:18:04;5.70;;;3.00;;
60919;SDS011;59039;52.108;19.942;2023-04-01T11:23:41;3.70;;;2.90;;
60919;SDS011;59039;52.108;19.942;2023-04-01T11:26:39;5.40;;;3.70;;
60919;SDS011;59039;52.108;19.942;2023-04-01T11:29:26;4.00;;;2.60;;
60919;SDS011;59039;52.108;19.942;2023-04-01T11:32:19;5.10;;;3.30;;
60919;SDS011;59039;52.108;19.942;2023-04-01T11:38:01;5.40;;;3.30;;
60919;SDS011;59039;52.108;19.942;2023-04-01T11:40:31;4.60;;;2.90;;
60919;SDS011;59039;52.108;19.942;2023-04-01T11:43:29;6.50;;;3.60;;
60919;SDS011;59039;52.108;19.942;2023-04-01T11:46:17;4.20;;;3.10;;
60919;SDS011;59039;52.108;19.942;2023-04-01T11:49:21;6.50;;;4.00;;
60919;SDS011;59039;52.108;19.942;2023-04-01T11:52:08;6.30;;;4.20;;
60919;SDS011;59039;52.108;19.942;2023-04-01T11:54:59;5.90;;;4.40;;
60919;SDS011;59039;52.108;19.942;2023-04-01T12:03:09;9.50;;;6.30;;
60919;SDS011;59039;52.108;19.942;2023-04-01T12:05:54;9.80;;;5.80;;
60919;SDS011;59039;52.108;19.942;2023-04-01T12:08:55;5.80;;;3.90;;
60919;SDS011;59039;52.108;19.942;2023-04-01T12:14:33;5.20;;;2.90;;
60919;SDS011;59039;52.108;19.942;2023-04-01T12:20:13;3.40;;;2.30;;
60919;SDS011;59039;52.108;19.942;2023-04-01T12:25:49;3.60;;;2.30;;
60919;SDS011;59039;52.108;19.942;2023-04-01T12:36:35;5.10;;;3.60;;
60919;SDS011;59039;52.108;19.942;2023-04-01T12:39:29;8.70;;;4.50;;
60919;SDS011;59039;52.108;19.942;2023-04-01T12:56:09;9.80;;;6.00;;
60919;SDS011;59039;52.108;19.942;2023-04-01T13:12:56;10.20;;;5.50;;
60919;SDS011;59039;52.108;19.942;2023-04-01T13:20:48;9.20;;;5.20;;
60919;SDS011;59039;52.108;19.942;2023-04-01T13:23:36;8.30;;;4.70;;
60919;SDS011;59039;52.108;19.942;2023-04-01T13:26:18;6.40;;;3.50;;
60919;SDS011;59039;52.108;19.942;2023-04-01T13:28:59;7.60;;;4.70;;
60919;SDS011;59039;52.108;19.942;2023-04-01T13:34:54;6.20;;;3.80;;
60919;SDS011;59039;52.108;19.942;2023-04-01T13:43:42;7.00;;;4.70;;
60919;SDS011;59039;52.108;19.942;2023-04-01T13:51:29;12.10;;;4.70;;
60919;SDS011;59039;52.108;19.942;2023-04-01T13:54:00;6.50;;;3.80;;
60919;SDS011;59039;52.108;19.942;2023-04-01T13:56:56;4.90;;;3.30;;
60919;SDS011;59039;52.108;19.942;2023-04-01T14:11:16;7.80;;;4.90;;
60919;SDS011;59039;52.108;19.942;2023-04-01T14:17:00;7.90;;;4.80;;
60919;SDS011;59039;52.108;19.942;2023-04-01T14:31:04;13.00;;;6.20;;
60919;SDS011;59039;52.108;19.942;2023-04-01T14:39:43;9.40;;;5.00;;
60919;SDS011;59039;52.108;19.942;2023-04-01T14:50:44;15.10;;;7.70;;
60919;SDS011;59039;52.108;19.942;2023-04-01T14:55:58;19.40;;;10.40;;
60919;SDS011;59039;52.108;19.942;2023-04-01T15:04:09;15.90;;;8.70;;
60919;SDS011;59039;52.108;19.942;2023-04-01T15:07:11;21.50;;;10.10;;
60919;SDS011;59039;52.108;19.942;2023-04-01T15:09:55;21.30;;;10.60;;
60919;SDS011;59039;52.108;19.942;2023-04-01T15:12:48;16.50;;;9.60;;
60919;SDS011;59039;52.108;19.942;2023-04-01T15:15:21;17.60;;;8.60;;
60919;SDS011;59039;52.108;19.942;2023-04-01T15:18:16;14.30;;;8.60;;
60919;SDS011;59039;52.108;19.942;2023-04-01T15:43:41;18.10;;;9.20;;
60919;SDS011;59039;52.108;19.942;2023-04-01T15:48:57;17.70;;;9.60;;
60919;SDS011;59039;52.108;19.942;2023-04-01T16:02:47;17.70;;;10.70;;
60919;SDS011;59039;52.108;19.942;2023-04-01T16:05:28;23.10;;;11.30;;
60919;SDS011;59039;52.108;19.942;2023-04-01T16:16:18;31.40;;;15.90;;
60919;SDS011;59039;52.108;19.942;2023-04-01T16:21:53;25.00;;;12.80;;
60919;SDS011;59039;52.108;19.942;2023-04-01T16:24:38;28.50;;;14.70;;
60919;SDS011;59039;52.108;19.942;2023-04-01T16:30:03;27.70;;;14.50;;
60919;SDS011;59039;52.108;19.942;2023-04-01T16:32:43;31.20;;;16.10;;
60919;SDS011;59039;52.108;19.942;2023-04-01T16:41:26;30.80;;;15.10;;
60919;SDS011;59039;52.108;19.942;2023-04-01T16:43:57;32.80;;;15.90;;
60919;SDS011;59039;52.108;19.942;2023-04-01T16:46:52;32.20;;;16.00;;
60919;SDS011;59039;52.108;19.942;2023-04-01T16:49:25;35.30;;;17.00;;
60919;SDS011;59039;52.108;19.942;2023-04-01T17:03:10;34.30;;;16.90;;
60919;SDS011;59039;52.108;19.942;2023-04-01T17:05:44;29.30;;;16.20;;
60919;SDS011;59039;52.108;19.942;2023-04-01T17:11:00;28.10;;;15.60;;
60919;SDS011;59039;52.108;19.942;2023-04-01T17:13:39;31.80;;;15.90;;
60919;SDS011;59039;52.108;19.942;2023-04-01T17:16:24;34.10;;;17.00;;
60919;SDS011;59039;52.108;19.942;2023-04-01T17:25:09;35.30;;;17.10;;
60919;SDS011;59039;52.108;19.942;2023-04-01T17:30:45;32.30;;;17.00;;
60919;SDS011;59039;52.108;19.942;2023-04-01T17:42:10;33.20;;;17.20;;
60919;SDS011;59039;52.108;19.942;2023-04-01T17:56:25;35.80;;;18.20;;
60919;SDS011;59039;52.108;19.942;2023-04-01T17:59:09;37.40;;;18.80;;
60919;SDS011;59039;52.108;19.942;2023-04-01T18:04:37;41.10;;;17.30;;
60919;SDS011;59039;52.108;19.942;2023-04-01T18:07:22;33.90;;;16.70;;
60919;SDS011;59039;52.108;19.942;2023-04-01T18:09:54;32.50;;;17.30;;
60919;SDS011;59039;52.108;19.942;2023-04-01T18:12:31;42.10;;;19.50;;
60919;SDS011;59039;52.108;19.942;2023-04-01T18:18:43;36.10;;;18.10;;
60919;SDS011;59039;52.108;19.942;2023-04-01T18:27:36;40.90;;;19.50;;
60919;SDS011;59039;52.108;19.942;2023-04-01T18:29:41;37.00;;;17.90;;
60919;SDS011;59039;52.108;19.942;2023-04-01T18:32:49;37.80;;;17.90;;
60919;SDS011;59039;52.108;19.942;2023-04-01T18:35:29;33.60;;;17.00;;
60919;SDS011;59039;52.108;19.942;2023-04-01T18:38:13;37.80;;;17.10;;
60919;SDS011;59039;52.108;19.942;2023-04-01T18:40:48;37.00;;;19.20;;
60919;SDS011;59039;52.108;19.942;2023-04-01T18:43:40;32.50;;;18.00;;
60919;SDS011;59039;52.108;19.942;2023-04-01T18:46:21;39.20;;;17.80;;
60919;SDS011;59039;52.108;19.942;2023-04-01T18:52:13;33.90;;;15.50;;
60919;SDS011;59039;52.108;19.942;2023-04-01T18:57:41;40.20;;;17.10;;
60919;SDS011;59039;52.108;19.942;2023-04-01T19:00:28;37.40;;;16.50;;
60919;SDS011;59039;52.108;19.942;2023-04-01T19:03:07;37.40;;;17.60;;
60919;SDS011;59039;52.108;19.942;2023-04-01T19:05:43;39.10;;;17.00;;
60919;SDS011;59039;52.108;19.942;2023-04-01T19:08:33;38.80;;;17.80;;
60919;SDS011;59039;52.108;19.942;2023-04-01T19:11:02;34.70;;;17.60;;
60919;SDS011;59039;52.108;19.942;2023-04-01T19:21:33;35.60;;;17.90;;
60919;SDS011;59039;52.108;19.942;2023-04-01T19:27:12;36.70;;;19.20;;
60919;SDS011;59039;52.108;19.942;2023-04-01T19:29:53;33.20;;;16.70;;
60919;SDS011;59039;52.108;19.942;2023-04-01T19:38:00;32.70;;;16.90;;
60919;SDS011;59039;52.108;19.942;2023-04-01T19:46:41;31.80;;;15.70;;
60919;SDS011;59039;52.108;19.942;2023-04-01T19:49:24;36.00;;;15.70;;
60919;SDS011;59039;52.108;19.942;2023-04-01T19:52:18;28.60;;;14.80;;
60919;SDS011;59039;52.108;19.942;2023-04-01T20:00:53;34.10;;;16.90;;
60919;SDS011;59039;52.108;19.942;2023-04-01T20:06:31;29.70;;;14.70;;
60919;SDS011;59039;52.108;19.942;2023-04-01T20:14:57;28.60;;;14.80;;
60919;SDS011;59039;52.108;19.942;2023-04-01T20:17:31;27.70;;;13.60;;
60919;SDS011;59039;52.108;19.942;2023-04-01T20:25:14;40.80;;;18.00;;
60919;SDS011;59039;52.108;19.942;2023-04-01T20:34:04;32.30;;;14.60;;
60919;SDS011;59039;52.108;19.942;2023-04-01T20:50:25;23.50;;;11.50;;
60919;SDS011;59039;52.108;19.942;2023-04-01T21:01:57;23.90;;;12.40;;
60919;SDS011;59039;52.108;19.942;2023-04-01T21:07:39;22.90;;;12.20;;
60919;SDS011;59039;52.108;19.942;2023-04-01T21:10:29;24.60;;;12.40;;
60919;SDS011;59039;52.108;19.942;2023-04-01T21:18:59;22.50;;;10.10;;
60919;SDS011;59039;52.108;19.942;2023-04-01T21:33:15;18.60;;;9.80;;
60919;SDS011;59039;52.108;19.942;2023-04-01T21:53:05;19.00;;;10.30;;
60919;SDS011;59039;52.108;19.942;2023-04-01T22:07:25;20.90;;;11.50;;
60919;SDS011;59039;52.108;19.942;2023-04-01T22:12:55;15.90;;;9.10;;
60919;SDS011;59039;52.108;19.942;2023-04-01T22:18:45;21.90;;;11.80;;
60919;SDS011;59039;52.108;19.942;2023-04-01T22:27:01;23.40;;;12.30;;
60919;SDS011;59039;52.108;19.942;2023-04-01T22:29:54;23.30;;;11.80;;
60919;SDS011;59039;52.108;19.942;2023-04-01T22:32:49;22.60;;;12.30;;
60919;SDS011;59039;52.108;19.942;2023-04-01T22:43:43;23.40;;;12.80;;
60919;SDS011;59039;52.108;19.942;2023-04-01T22:46:36;24.20;;;12.90;;
60919;SDS011;59039;52.108;19.942;2023-04-01T22:49:20;21.80;;;12.00;;
60919;SDS011;59039;52.108;19.942;2023-04-01T22:52:20;22.10;;;10.60;;
60919;SDS011;59039;52.108;19.942;2023-04-01T22:55:00;19.00;;;10.30;;
60919;SDS011;59039;52.108;19.942;2023-04-01T22:57:40;20.50;;;10.90;;
60919;SDS011;59039;52.108;19.942;2023-04-01T23:00:14;17.90;;;10.40;;
60919;SDS011;59039;52.108;19.942;2023-04-01T23:05:13;19.20;;;10.90;;
60919;SDS011;59039;52.108;19.942;2023-04-01T23:13:18;19.10;;;9.90;;
60919;SDS011;59039;52.108;19.942;2023-04-01T23:15:50;18.40;;;9.20;;
60919;SDS011;59039;52.108;19.942;2023-04-01T23:21:46;19.40;;;10.10;;
60919;SDS011;59039;52.108;19.942;2023-04-01T23:27:03;19.20;;;9.30;;
60919;SDS011;59039;52.108;19.942;2023-04-01T23:29:44;20.60;;;10.90;;
60919;SDS011;59039;52.108;19.942;2023-04-01T23:32:13;20.30;;;10.70;;
60919;SDS011;59039;52.108;19.942;2023-04-01T23:34:45;24.40;;;12.00;;
60919;SDS011;59039;52.108;19.942;2023-04-01T23:37:14;23.50;;;11.50;;
60919;SDS011;59039;52.108;19.942;2023-04-01T23:39:41;20.80;;;10.60;;
60919;SDS011;59039;52.108;19.942;2023-04-01T23:45:10;21.10;;;11.90;;
60919;SDS011;59039;52.108;19.942;2023-04-01T23:47:41;19.10;;;10.90;;
60919;SDS011;59039;52.108;19.942;2023-04-01T23:50:10;15.90;;;9.80;;
60919;SDS011;59039;52.108;19.942;2023-04-01T23:52:59;19.90;;;10.30;;
60919;SDS011;59039;52.108;19.942;2023-04-01T23:55:36;20.60;;;10.10;;
